createdAt,value
2023-03-06T00:00:19.457Z,75.25
2023-03-06T00:01:18.552Z,75.19
2023-03-06T00:02:15.126Z,75.49
2023-03-06T00:03:11.834Z,75.24
2023-03-06T00:04:08.656Z,75.26
2023-03-06T00:05:05.496Z,75.69
2023-03-06T00:06:02.447Z,76.03
2023-03-06T00:06:59.122Z,75.54
2023-03-06T00:07:55.798Z,75.59
2023-03-06T00:08:52.454Z,75.67
2023-03-06T00:09:49.038Z,74.80
2023-03-06T00:10:46.048Z,74.54
2023-03-06T00:11:42.621Z,74.19
2023-03-06T00:12:39.287Z,73.80
2023-03-06T00:13:35.876Z,73.64
2023-03-06T00:14:32.419Z,74.23
2023-03-06T00:15:29.448Z,74.08
2023-03-06T00:16:26.095Z,74.43
2023-03-06T00:17:22.826Z,74.20
2023-03-06T00:18:19.401Z,74.80
2023-03-06T00:19:16.016Z,75.20
2023-03-06T00:20:13.419Z,75.07
2023-03-06T00:21:10.113Z,74.32
2023-03-06T00:22:06.709Z,75.55
2023-03-06T00:23:03.619Z,76.14
2023-03-06T00:24:00.227Z,76.10
2023-03-06T00:24:57.012Z,75.48
2023-03-06T00:25:53.688Z,75.57
2023-03-06T00:26:50.965Z,73.97
2023-03-06T00:27:48.254Z,74.04
2023-03-06T00:28:44.960Z,73.77
2023-03-06T00:29:41.578Z,73.08
2023-03-06T00:30:38.235Z,74.21
2023-03-06T00:31:36.005Z,73.70
2023-03-06T00:32:32.665Z,74.09
2023-03-06T00:33:29.504Z,73.08
2023-03-06T00:34:26.119Z,73.55
2023-03-06T00:35:22.890Z,73.82
2023-03-06T00:36:19.556Z,73.20
2023-03-06T00:37:16.333Z,72.61
2023-03-06T00:38:13.517Z,73.05
2023-03-06T00:39:10.138Z,72.07
2023-03-06T00:40:12.897Z,72.72
2023-03-06T00:41:13.265Z,72.27
2023-03-06T00:42:10.017Z,71.56
2023-03-06T00:43:06.619Z,71.18
2023-03-06T00:44:03.333Z,70.76
2023-03-06T00:44:59.893Z,72.14
2023-03-06T00:45:56.512Z,72.12
2023-03-06T00:46:53.195Z,71.71
2023-03-06T00:47:49.859Z,72.52
2023-03-06T00:48:46.578Z,72.42
2023-03-06T00:49:44.870Z,72.84
2023-03-06T00:50:41.449Z,73.21
2023-03-06T00:51:38.107Z,73.40
2023-03-06T00:52:35.044Z,72.50
2023-03-06T00:53:31.738Z,72.69
2023-03-06T00:54:28.295Z,72.88
2023-03-06T00:55:24.925Z,73.06
2023-03-06T00:56:21.598Z,73.58
2023-03-06T00:57:18.208Z,72.66
2023-03-06T00:58:14.837Z,72.45
2023-03-06T00:59:11.739Z,72.57
2023-03-06T01:00:10.575Z,73.03
2023-03-06T01:01:07.352Z,72.36
2023-03-06T01:02:04.740Z,72.29
2023-03-06T01:03:01.347Z,72.14
2023-03-06T01:03:57.948Z,72.38
2023-03-06T01:04:54.724Z,72.85
2023-03-06T01:05:52.022Z,72.81
2023-03-06T01:06:49.521Z,72.36
2023-03-06T01:07:46.884Z,72.74
2023-03-06T01:08:43.470Z,72.78
2023-03-06T01:09:40.041Z,72.09
2023-03-06T01:10:40.678Z,72.59
2023-03-06T01:11:37.407Z,72.32
2023-03-06T01:12:37.142Z,72.36
2023-03-06T01:13:33.757Z,72.41
2023-03-06T01:14:31.506Z,72.27
2023-03-06T01:15:28.168Z,73.75
2023-03-06T01:16:24.857Z,73.20
2023-03-06T01:17:21.550Z,73.75
2023-03-06T01:18:18.440Z,72.26
2023-03-06T01:19:15.483Z,72.63
2023-03-06T01:20:15.653Z,73.33
2023-03-06T01:21:13.422Z,72.84
2023-03-06T01:22:10.012Z,73.23
2023-03-06T01:23:06.610Z,73.96
2023-03-06T01:24:03.228Z,74.25
2023-03-06T01:24:59.806Z,74.29
2023-03-06T01:25:56.661Z,74.59
2023-03-06T01:26:53.324Z,74.75
2023-03-06T01:27:49.889Z,74.78
2023-03-06T01:28:46.470Z,74.08
2023-03-06T01:29:43.058Z,74.50
2023-03-06T01:30:39.726Z,75.18
2023-03-06T01:31:36.349Z,74.75
2023-03-06T01:32:33.371Z,72.81
2023-03-06T01:33:30.280Z,73.60
2023-03-06T01:34:26.952Z,73.68
2023-03-06T01:35:23.618Z,72.94
2023-03-06T01:36:20.276Z,72.43
2023-03-06T01:37:17.231Z,72.57
2023-03-06T01:38:14.017Z,73.07
2023-03-06T01:39:10.761Z,72.27
2023-03-06T01:40:09.267Z,71.78
2023-03-06T01:41:06.563Z,71.67
2023-03-06T01:42:03.765Z,72.36
2023-03-06T01:43:25.487Z,73.58
2023-03-06T01:44:22.160Z,72.91
2023-03-06T01:45:18.700Z,72.68
2023-03-06T01:46:21.173Z,72.60
2023-03-06T01:47:17.830Z,72.44
2023-03-06T01:48:14.579Z,73.29
2023-03-06T01:49:14.170Z,73.86
2023-03-06T01:50:12.020Z,74.50
2023-03-06T01:51:09.065Z,75.33
2023-03-06T01:52:27.336Z,73.95
2023-03-06T01:53:24.499Z,73.95
2023-03-06T01:54:31.202Z,73.88
2023-03-06T01:55:33.858Z,74.13
2023-03-06T01:56:30.755Z,73.92
2023-03-06T01:57:41.082Z,73.68
2023-03-06T01:58:38.419Z,73.50
2023-03-06T01:59:36.780Z,73.66
2023-03-06T02:00:33.660Z,72.74
2023-03-06T02:01:32.309Z,73.71
2023-03-06T02:02:29.584Z,72.90
2023-03-06T02:03:28.480Z,72.46
2023-03-06T02:04:25.240Z,72.60
2023-03-06T02:05:22.438Z,72.53
2023-03-06T02:06:21.813Z,71.88
2023-03-06T02:07:20.962Z,72.27
2023-03-06T02:08:19.682Z,71.57
2023-03-06T02:09:16.814Z,71.46
2023-03-06T02:10:15.001Z,71.80
2023-03-06T02:11:17.357Z,72.16
2023-03-06T02:12:16.497Z,73.07
2023-03-06T02:13:13.053Z,72.83
2023-03-06T02:14:13.128Z,73.33
2023-03-06T02:15:11.949Z,72.88
2023-03-06T02:16:10.220Z,73.00
2023-03-06T02:17:09.961Z,72.26
2023-03-06T02:18:06.772Z,72.53
2023-03-06T02:19:07.186Z,72.97
2023-03-06T02:20:39.561Z,72.43
2023-03-06T02:21:37.726Z,71.90
2023-03-06T02:23:56.185Z,71.86
2023-03-06T02:25:07.938Z,71.58
2023-03-06T02:26:06.566Z,71.39
2023-03-06T02:27:04.548Z,72.02
2023-03-06T02:28:02.346Z,72.24
2023-03-06T02:28:59.440Z,72.28
2023-03-06T02:29:56.116Z,72.02
2023-03-06T02:30:54.493Z,72.73
2023-03-06T02:31:51.185Z,72.43
2023-03-06T02:32:47.856Z,72.17
2023-03-06T02:33:44.453Z,72.34
2023-03-06T02:34:40.989Z,72.27
2023-03-06T02:35:39.262Z,72.78
2023-03-06T02:36:40.275Z,73.13
2023-03-06T02:37:36.880Z,72.50
2023-03-06T02:38:40.734Z,73.07
2023-03-06T02:39:46.786Z,71.88
2023-03-06T02:40:46.916Z,71.56
2023-03-06T02:41:43.580Z,72.01
2023-03-06T02:42:49.816Z,71.75
2023-03-06T02:43:48.096Z,71.92
2023-03-06T02:44:44.791Z,71.79
2023-03-06T02:45:45.549Z,72.11
2023-03-06T02:46:42.169Z,72.13
2023-03-06T02:47:38.783Z,72.19
2023-03-06T02:48:35.374Z,72.39
2023-03-06T02:49:31.986Z,72.54
2023-03-06T02:50:28.784Z,72.90
2023-03-06T02:51:26.178Z,72.85
2023-03-06T02:52:22.946Z,72.08
2023-03-06T02:53:21.014Z,73.01
2023-03-06T02:54:20.396Z,72.72
2023-03-06T02:55:17.101Z,73.10
2023-03-06T02:56:15.176Z,72.17
2023-03-06T02:57:12.110Z,72.10
2023-03-06T02:58:09.689Z,72.61
2023-03-06T02:59:06.408Z,71.65
2023-03-06T03:00:03.859Z,71.99
2023-03-06T03:01:00.519Z,71.35
2023-03-06T03:01:57.142Z,72.03
2023-03-06T03:02:54.102Z,72.46
2023-03-06T03:03:50.787Z,72.10
2023-03-06T03:04:47.422Z,72.79
2023-03-06T03:05:44.108Z,72.38
2023-03-06T03:06:40.662Z,72.05
2023-03-06T03:07:37.396Z,72.24
2023-03-06T03:08:34.566Z,72.03
2023-03-06T03:09:36.772Z,72.56
2023-03-06T03:10:33.416Z,72.41
2023-03-06T03:11:29.980Z,72.79
2023-03-06T03:12:28.651Z,72.33
2023-03-06T03:13:25.453Z,71.96
2023-03-06T03:14:24.576Z,71.92
2023-03-06T03:15:21.361Z,72.06
2023-03-06T03:16:18.021Z,72.26
2023-03-06T03:17:14.831Z,72.50
2023-03-06T03:18:12.138Z,72.88
2023-03-06T03:19:08.775Z,72.54
2023-03-06T03:20:07.735Z,72.02
2023-03-06T03:21:08.498Z,71.63
2023-03-06T03:22:05.494Z,71.58
2023-03-06T03:23:02.185Z,71.86
2023-03-06T03:23:58.832Z,72.33
2023-03-06T03:24:55.510Z,72.69
2023-03-06T03:25:52.746Z,72.33
2023-03-06T03:26:49.340Z,72.57
2023-03-06T03:27:46.029Z,72.65
2023-03-06T03:28:42.711Z,72.86
2023-03-06T03:29:39.702Z,72.75
2023-03-06T03:30:36.371Z,72.82
2023-03-06T03:31:33.268Z,73.00
2023-03-06T03:32:29.931Z,72.94
2023-03-06T03:33:26.561Z,72.98
2023-03-06T03:34:23.165Z,73.13
2023-03-06T03:35:19.862Z,72.62
2023-03-06T03:36:16.467Z,72.46
2023-03-06T03:37:13.061Z,73.15
2023-03-06T03:38:09.724Z,73.00
2023-03-06T03:39:06.629Z,73.33
2023-03-06T03:40:05.185Z,73.12
2023-03-06T03:41:02.682Z,73.57
2023-03-06T03:41:59.473Z,73.21
2023-03-06T03:42:56.060Z,73.13
2023-03-06T03:43:52.775Z,73.57
2023-03-06T03:44:49.330Z,73.45
2023-03-06T03:45:46.048Z,73.38
2023-03-06T03:46:42.644Z,72.90
2023-03-06T03:47:39.359Z,73.33
2023-03-06T03:48:35.969Z,73.79
2023-03-06T03:49:32.546Z,73.80
2023-03-06T03:50:29.139Z,73.96
2023-03-06T03:51:25.685Z,73.63
2023-03-06T03:52:22.377Z,74.08
2023-03-06T03:53:18.966Z,73.44
2023-03-06T03:54:15.559Z,73.12
2023-03-06T03:55:12.189Z,73.01
2023-03-06T03:56:08.824Z,73.10
2023-03-06T03:57:05.547Z,73.35
2023-03-06T03:58:02.280Z,73.33
2023-03-06T03:58:58.947Z,73.41
2023-03-06T03:59:55.746Z,73.34
2023-03-06T04:00:52.471Z,73.42
2023-03-06T04:01:49.646Z,73.46
2023-03-06T04:02:46.685Z,73.42
2023-03-06T04:03:43.843Z,73.39
2023-03-06T04:04:40.883Z,73.29
2023-03-06T04:05:37.646Z,73.43
2023-03-06T04:06:34.320Z,73.32
2023-03-06T04:07:30.975Z,73.31
2023-03-06T04:08:27.851Z,73.02
2023-03-06T04:09:24.579Z,72.86
2023-03-06T04:10:21.259Z,73.01
2023-03-06T04:11:17.852Z,73.35
2023-03-06T04:12:14.460Z,73.57
2023-03-06T04:13:11.134Z,72.86
2023-03-06T04:14:09.742Z,72.68
2023-03-06T04:15:08.190Z,72.61
2023-03-06T04:16:04.962Z,72.51
2023-03-06T04:17:01.542Z,72.65
2023-03-06T04:17:58.393Z,72.74
2023-03-06T04:18:54.982Z,72.33
2023-03-06T04:19:51.770Z,72.66
2023-03-06T04:20:49.636Z,72.10
2023-03-06T04:21:46.321Z,72.53
2023-03-06T04:22:42.902Z,72.59
2023-03-06T04:23:39.541Z,72.34
2023-03-06T04:24:36.207Z,72.26
2023-03-06T04:25:32.801Z,71.89
2023-03-06T04:26:29.445Z,72.08
2023-03-06T04:27:26.093Z,72.00
2023-03-06T04:28:22.798Z,71.62
2023-03-06T04:29:19.532Z,71.83
2023-03-06T04:30:16.323Z,71.59
2023-03-06T04:31:13.796Z,70.91
2023-03-06T04:32:10.739Z,71.46
2023-03-06T04:33:07.577Z,71.46
2023-03-06T04:34:04.210Z,71.33
2023-03-06T04:35:00.940Z,71.46
2023-03-06T04:35:57.646Z,71.03
2023-03-06T04:36:54.328Z,71.16
2023-03-06T04:37:51.013Z,71.38
2023-03-06T04:38:47.732Z,71.21
2023-03-06T04:39:44.422Z,71.19
2023-03-06T04:40:44.479Z,71.18
2023-03-06T04:41:42.480Z,71.13
2023-03-06T04:42:39.331Z,71.04
2023-03-06T04:43:35.973Z,70.69
2023-03-06T04:44:32.664Z,70.64
2023-03-06T04:45:30.915Z,70.88
2023-03-06T04:46:27.548Z,70.92
2023-03-06T04:47:24.275Z,70.56
2023-03-06T04:48:20.905Z,70.72
2023-03-06T04:49:17.592Z,70.29
2023-03-06T04:50:14.367Z,70.56
2023-03-06T04:51:13.358Z,70.51
2023-03-06T04:52:09.930Z,70.83
2023-03-06T04:53:07.992Z,70.34
2023-03-06T04:54:05.367Z,69.82
2023-03-06T04:55:04.221Z,70.29
2023-03-06T04:56:00.884Z,70.15
2023-03-06T04:56:57.509Z,70.11
2023-03-06T04:57:54.240Z,69.33
2023-03-06T04:58:50.884Z,69.20
2023-03-06T04:59:47.419Z,69.36
2023-03-06T05:00:44.127Z,69.59
2023-03-06T05:01:40.821Z,69.19
2023-03-06T05:02:38.081Z,69.40
2023-03-06T05:03:34.678Z,69.37
2023-03-06T05:04:31.226Z,68.86
2023-03-06T05:05:28.965Z,69.27
2023-03-06T05:06:26.490Z,68.88
2023-03-06T05:07:23.205Z,68.50
2023-03-06T05:08:20.066Z,69.20
2023-03-06T05:09:16.950Z,69.27
2023-03-06T05:10:16.051Z,69.10
2023-03-06T05:11:12.690Z,69.34
2023-03-06T05:12:09.409Z,68.87
2023-03-06T05:13:06.155Z,68.79
2023-03-06T05:14:02.831Z,68.70
2023-03-06T05:14:59.523Z,69.04
2023-03-06T05:16:01.930Z,68.89
2023-03-06T05:16:58.394Z,68.53
2023-03-06T05:17:56.569Z,68.45
2023-03-06T05:18:53.414Z,68.66
2023-03-06T05:19:49.998Z,68.59
2023-03-06T05:20:46.696Z,68.27
2023-03-06T05:21:43.340Z,68.10
2023-03-06T05:22:40.713Z,68.05
2023-03-06T05:23:38.662Z,67.89
2023-03-06T05:24:35.439Z,68.37
2023-03-06T05:25:32.233Z,68.25
2023-03-06T05:26:28.913Z,67.55
2023-03-06T05:27:25.692Z,67.70
2023-03-06T05:28:22.651Z,67.40
2023-03-06T05:29:19.368Z,67.94
2023-03-06T05:30:16.273Z,67.58
2023-03-06T05:31:12.925Z,67.47
2023-03-06T05:32:09.734Z,67.45
2023-03-06T05:33:06.675Z,67.82
2023-03-06T05:34:03.360Z,67.71
2023-03-06T05:35:00.058Z,67.41
2023-03-06T05:35:56.714Z,67.05
2023-03-06T05:36:53.263Z,66.98
2023-03-06T05:37:50.170Z,66.85
2023-03-06T05:38:46.955Z,66.74
2023-03-06T05:39:43.499Z,66.54
2023-03-06T05:40:44.292Z,66.22
2023-03-06T05:41:40.862Z,66.21
2023-03-06T05:42:37.616Z,66.00
2023-03-06T05:43:34.218Z,65.95
2023-03-06T05:44:33.078Z,65.96
2023-03-06T05:45:29.653Z,66.04
2023-03-06T05:46:26.524Z,65.88
2023-03-06T05:47:23.280Z,65.58
2023-03-06T05:48:19.879Z,64.97
2023-03-06T05:49:17.084Z,64.85
2023-03-06T05:50:14.841Z,64.28
2023-03-06T05:51:11.981Z,63.97
2023-03-06T05:52:09.026Z,63.52
2023-03-06T05:53:05.670Z,63.94
2023-03-06T05:54:02.417Z,62.85
2023-03-06T05:54:59.100Z,62.60
2023-03-06T05:56:00.055Z,62.31
2023-03-06T05:56:57.479Z,62.73
2023-03-06T05:57:54.151Z,63.17
2023-03-06T05:58:51.703Z,61.10
2023-03-06T05:59:50.025Z,60.92
2023-03-06T06:00:46.615Z,61.02
2023-03-06T06:01:43.312Z,60.72
2023-03-06T06:02:40.083Z,61.03
2023-03-06T06:03:36.815Z,60.71
2023-03-06T06:04:33.486Z,60.90
2023-03-06T06:05:30.241Z,60.42
2023-03-06T06:06:26.837Z,59.60
2023-03-06T06:07:23.442Z,59.97
2023-03-06T06:08:20.998Z,59.49
2023-03-06T06:09:17.537Z,59.44
2023-03-06T06:10:14.371Z,57.78
2023-03-06T06:11:12.834Z,58.07
2023-03-06T06:12:09.589Z,58.40
2023-03-06T06:13:06.434Z,57.61
2023-03-06T06:14:03.051Z,57.90
2023-03-06T06:14:59.657Z,57.72
2023-03-06T06:15:56.330Z,57.95
2023-03-06T06:16:53.646Z,57.87
2023-03-06T06:17:50.226Z,57.55
2023-03-06T06:18:46.837Z,56.83
2023-03-06T06:19:43.913Z,57.32
2023-03-06T06:20:40.541Z,57.29
2023-03-06T06:21:37.174Z,56.93
2023-03-06T06:22:36.829Z,57.25
2023-03-06T06:23:33.680Z,57.25
2023-03-06T06:24:31.933Z,57.42
2023-03-06T06:25:28.582Z,57.42
2023-03-06T06:26:25.200Z,57.34
2023-03-06T06:27:21.792Z,57.36
2023-03-06T06:28:18.427Z,57.50
2023-03-06T06:29:15.176Z,57.46
2023-03-06T06:30:13.045Z,57.35
2023-03-06T06:31:13.138Z,57.19
2023-03-06T06:32:09.871Z,57.76
2023-03-06T06:33:06.972Z,57.57
2023-03-06T06:34:07.613Z,57.01
2023-03-06T06:35:05.029Z,57.27
2023-03-06T06:36:01.807Z,57.13
2023-03-06T06:36:58.509Z,57.27
2023-03-06T06:37:55.127Z,57.34
2023-03-06T06:38:51.842Z,55.78
2023-03-06T06:39:48.632Z,56.40
2023-03-06T06:40:53.943Z,56.39
2023-03-06T06:42:26.184Z,56.28
2023-03-06T06:43:18.762Z,56.47
2023-03-06T06:44:16.219Z,56.95
2023-03-06T06:45:13.224Z,56.13
2023-03-06T06:46:38.784Z,55.30
2023-03-06T06:47:26.614Z,55.41
2023-03-06T06:48:23.291Z,55.27
2023-03-06T06:49:20.019Z,55.12
2023-03-06T06:50:16.852Z,55.24
2023-03-06T06:51:13.484Z,54.87
2023-03-06T06:52:10.656Z,55.87
2023-03-06T06:53:07.309Z,54.59
2023-03-06T06:54:04.000Z,54.57
2023-03-06T06:55:00.696Z,54.54
2023-03-06T06:56:00.476Z,54.56
2023-03-06T06:56:57.216Z,54.21
2023-03-06T06:57:53.948Z,54.52
2023-03-06T06:59:01.334Z,54.74
2023-03-06T07:00:07.870Z,54.44
2023-03-06T07:01:09.882Z,54.36
2023-03-06T07:02:08.259Z,54.36
2023-03-06T07:03:04.900Z,55.68
2023-03-06T07:04:01.512Z,53.84
2023-03-06T07:05:05.851Z,54.56
2023-03-06T07:06:02.951Z,53.86
2023-03-06T07:06:59.999Z,53.55
2023-03-06T07:07:56.697Z,53.74
2023-03-06T07:08:53.351Z,53.47
2023-03-06T07:09:50.264Z,54.59
2023-03-06T07:10:46.872Z,53.63
2023-03-06T07:11:43.510Z,52.19
2023-03-06T07:12:40.170Z,52.35
2023-03-06T07:13:36.789Z,52.03
2023-03-06T07:14:33.466Z,53.16
2023-03-06T07:15:30.882Z,52.47
2023-03-06T07:16:27.696Z,52.54
2023-03-06T07:17:24.332Z,51.81
2023-03-06T07:18:20.911Z,50.82
2023-03-06T07:19:17.545Z,50.17
2023-03-06T07:20:14.241Z,50.35
2023-03-06T07:21:11.699Z,50.64
2023-03-06T07:22:08.527Z,51.61
2023-03-06T07:23:08.518Z,52.28
2023-03-06T07:24:05.566Z,52.32
2023-03-06T07:25:03.456Z,51.22
2023-03-06T07:26:00.211Z,51.44
2023-03-06T07:26:56.786Z,51.71
2023-03-06T07:27:54.753Z,51.36
2023-03-06T07:28:53.695Z,51.35
2023-03-06T07:29:50.674Z,50.04
2023-03-06T07:30:47.392Z,51.80
2023-03-06T07:31:44.533Z,51.65
2023-03-06T07:32:41.175Z,51.50
2023-03-06T07:33:38.939Z,51.60
2023-03-06T07:34:35.630Z,50.95
2023-03-06T07:35:32.286Z,51.34
2023-03-06T07:36:28.902Z,50.90
2023-03-06T07:37:25.601Z,50.42
2023-03-06T07:38:22.267Z,51.95
2023-03-06T07:39:18.906Z,53.14
2023-03-06T07:40:15.570Z,50.91
2023-03-06T07:41:13.752Z,52.01
2023-03-06T07:42:13.429Z,53.10
2023-03-06T07:43:19.171Z,53.57
2023-03-06T07:44:16.290Z,52.71
2023-03-06T07:45:13.314Z,50.88
2023-03-06T07:46:11.186Z,50.44
2023-03-06T07:47:07.943Z,51.46
2023-03-06T07:48:05.666Z,52.05
2023-03-06T07:49:03.204Z,50.14
2023-03-06T07:50:03.112Z,49.98
2023-03-06T07:51:02.307Z,49.71
2023-03-06T07:51:59.146Z,51.38
2023-03-06T07:52:55.765Z,48.92
2023-03-06T07:53:52.426Z,48.12
2023-03-06T07:54:49.421Z,49.82
2023-03-06T07:55:46.118Z,50.81
2023-03-06T07:56:42.686Z,52.16
2023-03-06T07:57:39.824Z,50.84
2023-03-06T07:58:38.206Z,49.89
2023-03-06T07:59:34.900Z,50.25
2023-03-06T08:00:31.555Z,51.01
2023-03-06T08:01:28.382Z,51.70
2023-03-06T08:02:25.054Z,51.98
2023-03-06T08:03:21.706Z,51.93
2023-03-06T08:04:18.365Z,51.72
2023-03-06T08:05:16.755Z,53.84
2023-03-06T08:06:19.433Z,53.28
2023-03-06T08:07:15.995Z,52.05
2023-03-06T08:08:12.667Z,51.64
2023-03-06T08:09:09.207Z,52.20
2023-03-06T08:10:06.135Z,51.97
2023-03-06T08:11:02.823Z,53.00
2023-03-06T08:11:59.412Z,51.33
2023-03-06T08:12:55.958Z,53.07
2023-03-06T08:13:53.094Z,51.18
2023-03-06T08:14:49.731Z,51.41
2023-03-06T08:15:49.530Z,52.28
2023-03-06T08:16:46.127Z,51.67
2023-03-06T08:17:42.841Z,52.68
2023-03-06T08:18:40.094Z,52.07
2023-03-06T08:19:36.742Z,51.65
2023-03-06T08:20:33.280Z,51.87
2023-03-06T08:21:30.011Z,51.02
2023-03-06T08:22:26.577Z,51.23
2023-03-06T08:23:23.366Z,51.46
2023-03-06T08:24:20.211Z,50.72
2023-03-06T08:25:16.812Z,51.20
2023-03-06T08:26:19.197Z,50.89
2023-03-06T08:27:15.808Z,52.02
2023-03-06T08:28:12.357Z,53.33
2023-03-06T08:29:10.814Z,54.09
2023-03-06T08:30:08.473Z,53.38
2023-03-06T08:31:25.226Z,52.34
2023-03-06T08:32:21.886Z,52.17
2023-03-06T08:33:18.479Z,52.79
2023-03-06T08:34:19.365Z,53.31
2023-03-06T08:35:16.067Z,53.49
2023-03-06T08:36:12.760Z,53.40
2023-03-06T08:37:09.504Z,53.76
2023-03-06T08:38:06.413Z,53.49
2023-03-06T08:39:03.717Z,52.79
2023-03-06T08:40:02.631Z,52.26
2023-03-06T08:40:59.263Z,50.84
2023-03-06T08:41:55.904Z,51.08
2023-03-06T08:42:52.462Z,52.37
2023-03-06T08:43:49.570Z,53.00
2023-03-06T08:44:46.248Z,51.38
2023-03-06T08:45:42.878Z,52.53
2023-03-06T08:46:40.084Z,51.76
2023-03-06T08:47:36.713Z,51.06
2023-03-06T08:48:33.396Z,52.36
2023-03-06T08:49:30.268Z,51.64
2023-03-06T08:50:26.973Z,51.33
2023-03-06T08:51:24.375Z,51.86
2023-03-06T08:52:21.120Z,52.09
2023-03-06T08:53:17.870Z,52.89
2023-03-06T08:54:14.806Z,52.76
2023-03-06T08:55:12.921Z,52.49
2023-03-06T08:56:29.378Z,53.10
2023-03-06T08:57:26.004Z,52.39
2023-03-06T08:58:22.675Z,51.46
2023-03-06T08:59:19.363Z,51.22
2023-03-06T09:00:16.675Z,50.96
2023-03-06T09:01:18.662Z,51.57
2023-03-06T09:02:15.379Z,51.15
2023-03-06T09:03:12.034Z,50.09
2023-03-06T09:04:11.554Z,50.77
2023-03-06T09:05:09.007Z,51.43
2023-03-06T09:06:05.963Z,51.90
2023-03-06T09:07:02.557Z,51.28
2023-03-06T09:07:59.219Z,51.30
2023-03-06T09:08:55.998Z,50.13
2023-03-06T09:09:56.512Z,50.40
2023-03-06T09:10:53.150Z,51.24
2023-03-06T09:11:51.257Z,51.23
2023-03-06T09:12:51.230Z,52.18
2023-03-06T09:13:48.777Z,51.71
2023-03-06T09:14:45.359Z,50.59
2023-03-06T09:15:41.964Z,50.18
2023-03-06T09:16:38.742Z,50.22
2023-03-06T09:17:35.390Z,51.80
2023-03-06T09:18:32.024Z,52.22
2023-03-06T09:19:28.627Z,51.73
2023-03-06T09:20:28.286Z,50.78
2023-03-06T09:21:26.246Z,51.73
2023-03-06T09:22:22.831Z,50.88
2023-03-06T09:23:19.393Z,49.78
2023-03-06T09:24:16.057Z,51.05
2023-03-06T09:25:13.998Z,51.49
2023-03-06T09:26:12.347Z,51.36
2023-03-06T09:27:08.946Z,51.29
2023-03-06T09:28:11.773Z,50.42
2023-03-06T09:29:08.836Z,50.64
2023-03-06T09:30:06.548Z,51.67
2023-03-06T09:31:11.070Z,51.46
2023-03-06T09:32:07.963Z,51.34
2023-03-06T09:33:04.689Z,52.48
2023-03-06T09:34:01.551Z,50.79
2023-03-06T09:34:58.189Z,51.81
2023-03-06T09:35:56.646Z,50.96
2023-03-06T09:36:57.197Z,50.69
2023-03-06T09:37:54.358Z,50.10
2023-03-06T09:39:47.643Z,51.06
2023-03-06T09:41:02.566Z,51.48
2023-03-06T09:41:59.497Z,49.88
2023-03-06T09:42:56.334Z,50.62
2023-03-06T09:43:57.995Z,51.23
2023-03-06T09:45:01.101Z,51.52
2023-03-06T09:45:59.023Z,50.22
2023-03-06T09:47:07.046Z,50.30
2023-03-06T09:48:15.672Z,48.98
2023-03-06T09:49:15.367Z,48.79
2023-03-06T09:50:11.977Z,49.57
2023-03-06T09:51:16.384Z,50.12
2023-03-06T09:52:34.260Z,49.34
2023-03-06T09:53:55.758Z,48.90
2023-03-06T09:54:55.556Z,49.38
2023-03-06T09:56:02.523Z,49.23
2023-03-06T09:56:59.291Z,50.17
2023-03-06T09:58:04.979Z,49.67
2023-03-06T09:59:13.518Z,50.47
2023-03-06T10:00:23.731Z,49.20
2023-03-06T10:01:25.868Z,48.42
2023-03-06T10:02:31.416Z,47.70
2023-03-06T10:03:33.315Z,47.85
2023-03-06T10:04:38.280Z,47.88
2023-03-06T10:06:02.606Z,47.13
2023-03-06T10:07:20.524Z,47.13
2023-03-06T10:08:47.200Z,48.27
2023-03-06T10:09:50.837Z,48.40
2023-03-06T10:11:07.188Z,48.33
2023-03-06T10:12:22.021Z,48.34
2023-03-06T10:13:28.267Z,47.59
2023-03-06T10:14:49.025Z,47.40
2023-03-06T10:15:48.154Z,48.05
2023-03-06T10:16:44.926Z,46.61
2023-03-06T10:17:42.855Z,46.82
2023-03-06T10:18:40.062Z,47.23
2023-03-06T10:19:40.140Z,48.70
2023-03-06T10:21:07.418Z,47.28
2023-03-06T10:22:52.607Z,46.40
2023-03-06T10:24:37.854Z,47.82
2023-03-06T10:26:01.137Z,46.52
2023-03-06T10:27:34.713Z,47.72
2023-03-06T10:28:47.721Z,45.66
2023-03-06T10:30:02.194Z,47.33
2023-03-06T10:31:09.432Z,48.33
2023-03-06T10:32:20.386Z,47.20
2023-03-06T10:33:20.069Z,47.12
2023-03-06T10:34:28.512Z,48.78
2023-03-06T10:35:30.824Z,48.89
2023-03-06T10:36:28.432Z,48.70
2023-03-06T10:37:31.021Z,47.80
2023-03-06T10:38:38.437Z,48.46
2023-03-06T10:39:35.317Z,48.45
2023-03-06T10:40:54.354Z,46.93
2023-03-06T10:41:50.906Z,46.80
2023-03-06T10:42:47.506Z,47.68
2023-03-06T10:44:03.000Z,47.89
2023-03-06T10:45:25.819Z,48.50
2023-03-06T10:46:31.342Z,47.68
2023-03-06T10:47:30.789Z,47.43
2023-03-06T10:48:30.177Z,46.27
2023-03-06T10:49:37.515Z,46.90
2023-03-06T10:50:34.516Z,47.58
2023-03-06T10:51:32.052Z,48.68
2023-03-06T10:52:34.416Z,47.61
2023-03-06T10:53:30.950Z,47.51
2023-03-06T10:54:30.150Z,45.46
2023-03-06T10:55:30.327Z,47.21
2023-03-06T10:56:39.524Z,45.99
2023-03-06T10:57:36.143Z,46.13
2023-03-06T10:58:33.230Z,46.48
2023-03-06T10:59:29.967Z,46.43
2023-03-06T11:00:36.096Z,46.45
2023-03-06T11:01:32.928Z,47.16
2023-03-06T11:02:39.500Z,47.22
2023-03-06T11:03:37.087Z,46.71
2023-03-06T11:04:35.265Z,45.42
2023-03-06T11:05:31.947Z,46.50
2023-03-06T11:06:35.201Z,45.83
2023-03-06T11:07:34.592Z,45.28
2023-03-06T11:08:31.661Z,45.29
2023-03-06T11:09:28.386Z,45.90
2023-03-06T11:10:25.735Z,46.53
2023-03-06T11:11:36.728Z,45.39
2023-03-06T11:12:38.305Z,44.69
2023-03-06T11:13:38.586Z,45.29
2023-03-06T11:14:35.182Z,46.29
2023-03-06T11:15:32.199Z,46.31
2023-03-06T11:16:30.769Z,45.88
2023-03-06T11:17:29.801Z,45.01
2023-03-06T11:18:34.896Z,44.33
2023-03-06T11:19:32.835Z,43.91
2023-03-06T11:20:41.266Z,44.42
2023-03-06T11:22:00.050Z,44.79
2023-03-06T11:23:32.301Z,44.51
2023-03-06T11:24:40.562Z,45.28
2023-03-06T11:25:44.779Z,44.92
2023-03-06T11:26:50.970Z,43.68
2023-03-06T11:27:56.798Z,44.23
2023-03-06T11:29:17.369Z,44.37
2023-03-06T11:30:32.427Z,44.36
2023-03-06T11:31:33.743Z,45.20
2023-03-06T11:32:44.115Z,46.76
2023-03-06T11:34:04.446Z,45.05
2023-03-06T11:35:13.930Z,43.56
2023-03-06T11:36:18.882Z,43.55
2023-03-06T11:37:43.310Z,43.38
2023-03-06T11:38:49.455Z,44.32
2023-03-06T11:39:55.194Z,43.64
2023-03-06T11:41:02.662Z,43.86
2023-03-06T11:42:20.278Z,44.33
2023-03-06T11:44:05.029Z,43.01
2023-03-06T11:45:24.145Z,43.98
2023-03-06T11:46:26.383Z,42.45
2023-03-06T11:47:27.730Z,42.36
2023-03-06T11:48:43.906Z,41.16
2023-03-06T11:50:05.502Z,43.63
2023-03-06T11:51:15.020Z,44.42
2023-03-06T11:52:44.428Z,43.07
2023-03-06T11:53:41.749Z,42.68
2023-03-06T11:54:38.476Z,42.69
2023-03-06T11:55:56.344Z,41.59
2023-03-06T11:57:04.525Z,42.22
2023-03-06T11:58:19.930Z,42.05
2023-03-06T11:59:34.467Z,39.37
2023-03-06T12:00:57.050Z,40.33
2023-03-06T12:02:15.307Z,40.14
2023-03-06T12:03:47.588Z,41.45
2023-03-06T12:05:02.240Z,41.29
2023-03-06T12:06:09.845Z,40.35
2023-03-06T12:07:29.070Z,42.75
2023-03-06T12:08:31.481Z,41.62
2023-03-06T12:09:49.971Z,41.81
2023-03-06T12:10:54.439Z,42.94
2023-03-06T12:12:02.464Z,41.95
2023-03-06T12:13:27.364Z,40.91
2023-03-06T12:15:00.378Z,43.46
2023-03-06T12:16:15.326Z,43.12
2023-03-06T12:17:22.764Z,43.64
2023-03-06T12:18:50.185Z,42.30
2023-03-06T12:20:02.205Z,40.81
2023-03-06T12:21:15.465Z,39.58
2023-03-06T12:22:20.389Z,41.25
2023-03-06T12:23:16.912Z,41.18
2023-03-06T12:24:28.796Z,39.21
2023-03-06T12:25:34.228Z,40.50
2023-03-06T12:26:42.655Z,41.50
2023-03-06T12:27:58.906Z,39.84
2023-03-06T12:28:58.335Z,40.39
2023-03-06T12:30:04.258Z,41.79
2023-03-06T12:31:11.233Z,41.13
2023-03-06T12:32:29.027Z,39.96
2023-03-06T12:33:31.730Z,40.57
2023-03-06T12:34:34.021Z,38.54
2023-03-06T12:35:52.251Z,38.96
2023-03-06T12:36:48.898Z,39.97
2023-03-06T12:37:51.560Z,40.12
2023-03-06T12:39:00.589Z,37.65
2023-03-06T12:40:13.597Z,40.08
2023-03-06T12:41:13.048Z,40.19
2023-03-06T12:42:35.693Z,39.85
2023-03-06T12:43:50.840Z,39.24
2023-03-06T12:44:53.227Z,39.78
2023-03-06T12:45:52.815Z,39.95
2023-03-06T12:47:23.777Z,39.06
2023-03-06T12:48:29.676Z,39.62
2023-03-06T12:49:38.772Z,40.14
2023-03-06T12:50:38.809Z,40.11
2023-03-06T12:51:36.253Z,40.12
2023-03-06T12:52:34.718Z,40.66
2023-03-06T12:53:32.708Z,39.81
2023-03-06T12:54:33.710Z,39.92
2023-03-06T12:55:50.364Z,40.26